CLT TRACON Summary / KCLT TAF
CLT TRACON Summary:
High pressure is building in behind the front, expect mostly MVFR/IFR in the rain between 11-16z. Surface winds will be north at 5-10kts. Flight Hazards: Expect LGT-MOD turbulence at all altitudes and LGT-MOD rime/mixed Icing above 040 in the TRACON airspace.

Updated:11/26/2014 6:46 AM
CLT Terminal Aerodrome Forecast:

FTUS42 KGSP 261604 AAC
TAFCLT
TAF AMD
KCLT 261604Z 2616/2712 34007KT P6SM SCT015 BKN050 OVC120
      TEMPO 2616/2618 BKN015 OVC050
     FM261800 30008KT P6SM SCT025 BKN050
     FM270000 00000KT P6SM BKN250=
CLT TRACON Area Remark:
IFR EXPECTED UNTIL 14z.
Convective Gate Forecast / Icing Gate Forecast / Vertical Wind Profile (click on image to enlarge)
Convective Gate Forecast
Icing Gate Forecast

table with gate forecasts (convective/ CCFP) used April - November

SIGMETS/ Southeast Radar & Satellite Loops (click on image to enlarge)

Southeast Radar Loop

 



USA.gov is the U.S. government's official web portal to all federal, state and local government web resources and services.